createdAt,value
2022-08-21T00:00:44.178Z,19.30
2022-08-21T00:03:14.377Z,19.30
2022-08-21T00:05:45.937Z,19.30
2022-08-21T00:21:23.388Z,19.30
2022-08-21T00:23:53.403Z,19.30
2022-08-21T00:26:22.225Z,19.30
2022-08-21T00:28:51.154Z,19.30
2022-08-21T00:31:19.736Z,19.30
2022-08-21T00:33:48.839Z,19.30
2022-08-21T00:36:17.685Z,19.20
2022-08-21T00:38:47.594Z,19.20
2022-08-21T00:41:36.816Z,19.20
2022-08-21T00:44:05.840Z,19.20
2022-08-21T00:46:34.917Z,19.10
2022-08-21T00:49:03.310Z,19.10
2022-08-21T00:51:38.499Z,19.10
2022-08-21T00:54:16.909Z,19.10
2022-08-21T00:56:48.569Z,19.00
2022-08-21T00:59:18.168Z,19.00
2022-08-21T01:01:46.987Z,18.90
2022-08-21T01:04:16.852Z,19.00
2022-08-21T01:06:45.785Z,19.00
2022-08-21T01:09:16.184Z,18.90
2022-08-21T01:11:45.174Z,18.90
2022-08-21T01:14:14.404Z,18.90
2022-08-21T01:16:45.298Z,18.90
2022-08-21T01:19:15.241Z,18.90
2022-08-21T01:21:45.350Z,18.90
2022-08-21T01:24:14.108Z,18.90
2022-08-21T01:26:43.255Z,18.90
2022-08-21T01:29:17.645Z,18.90
2022-08-21T01:31:47.060Z,18.90
2022-08-21T01:34:16.787Z,18.80
2022-08-21T01:36:47.082Z,18.80
2022-08-21T01:39:16.141Z,18.80
2022-08-21T01:41:45.084Z,18.70
2022-08-21T01:44:14.172Z,18.70
2022-08-21T01:46:42.737Z,18.70
2022-08-21T01:49:11.144Z,18.70
2022-08-21T01:51:39.898Z,18.70
2022-08-21T01:54:09.831Z,18.70
2022-08-21T01:56:39.430Z,18.70
2022-08-21T01:59:08.342Z,18.70
2022-08-21T02:01:36.854Z,18.70
2022-08-21T02:04:05.784Z,18.70
2022-08-21T02:06:34.456Z,18.70
2022-08-21T02:09:02.948Z,18.60
2022-08-21T02:11:37.638Z,18.60
2022-08-21T02:14:10.378Z,18.60
2022-08-21T02:16:48.819Z,18.60
2022-08-21T02:19:19.773Z,18.50
2022-08-21T02:21:52.081Z,18.50
2022-08-21T02:24:26.236Z,18.50
2022-08-21T02:26:56.353Z,18.50
2022-08-21T02:29:24.824Z,18.50
2022-08-21T02:31:54.201Z,18.40
2022-08-21T02:34:22.720Z,18.40
2022-08-21T02:36:59.420Z,18.40
2022-08-21T02:39:28.637Z,18.30
2022-08-21T02:41:58.507Z,18.30
2022-08-21T02:44:30.098Z,18.30
2022-08-21T02:47:03.286Z,18.40
2022-08-21T02:49:34.539Z,18.40
2022-08-21T02:52:03.210Z,18.40
2022-08-21T02:54:31.620Z,18.40
2022-08-21T02:57:01.414Z,18.40
2022-08-21T02:59:29.896Z,18.40
2022-08-21T03:01:58.401Z,18.40
2022-08-21T03:04:26.817Z,18.40
2022-08-21T03:06:55.248Z,18.30
2022-08-21T03:09:23.676Z,18.30
2022-08-21T03:11:52.413Z,18.30
2022-08-21T03:14:22.180Z,18.30
2022-08-21T03:16:50.954Z,18.30
2022-08-21T03:19:19.329Z,18.30
2022-08-21T03:21:47.843Z,18.30
2022-08-21T03:24:16.186Z,18.30
2022-08-21T03:26:47.696Z,18.30
2022-08-21T03:29:16.117Z,18.30
2022-08-21T03:31:46.015Z,18.30
2022-08-21T03:34:14.413Z,18.30
2022-08-21T03:36:42.900Z,18.30
2022-08-21T03:39:11.470Z,18.30
2022-08-21T03:41:39.973Z,18.30
2022-08-21T03:44:08.510Z,18.30
2022-08-21T03:46:36.887Z,18.30
2022-08-21T03:49:06.775Z,18.30
2022-08-21T03:51:36.640Z,18.20
2022-08-21T03:54:05.200Z,18.20
2022-08-21T03:56:33.587Z,18.20
2022-08-21T03:59:03.570Z,18.30
2022-08-21T04:01:32.253Z,18.20
2022-08-21T04:04:00.798Z,18.30
2022-08-21T04:06:34.543Z,18.30
2022-08-21T04:09:06.184Z,18.30
2022-08-21T04:11:34.761Z,18.30
2022-08-21T04:14:03.227Z,18.30
2022-08-21T04:16:31.946Z,18.30
2022-08-21T04:19:00.318Z,18.30
2022-08-21T04:21:28.711Z,18.40
2022-08-21T04:23:59.483Z,18.50
2022-08-21T04:26:27.957Z,18.50
2022-08-21T04:28:57.162Z,18.40
2022-08-21T04:31:28.697Z,18.60
2022-08-21T04:33:57.877Z,18.60
2022-08-21T04:36:26.242Z,18.70
2022-08-21T04:38:55.267Z,18.70
2022-08-21T04:41:28.039Z,18.80
2022-08-21T04:43:57.429Z,18.80
2022-08-21T04:46:25.848Z,18.80
2022-08-21T04:48:54.410Z,18.80
2022-08-21T04:51:26.062Z,18.80
2022-08-21T04:53:57.795Z,18.90
2022-08-21T04:56:29.633Z,19.00
2022-08-21T04:58:59.471Z,19.00
2022-08-21T05:01:29.702Z,19.10
2022-08-21T05:04:00.615Z,19.10
2022-08-21T05:06:30.833Z,19.10
2022-08-21T05:09:01.656Z,19.10
2022-08-21T05:11:33.236Z,19.20
2022-08-21T05:14:01.754Z,19.20
2022-08-21T05:16:37.420Z,19.20
2022-08-21T05:19:06.615Z,19.20
2022-08-21T05:21:35.259Z,19.30
2022-08-21T05:24:03.725Z,19.30
2022-08-21T05:26:33.553Z,19.40
2022-08-21T05:29:13.678Z,19.40
2022-08-21T05:31:42.124Z,19.40
2022-08-21T05:34:10.516Z,19.40
2022-08-21T05:36:38.986Z,19.40
2022-08-21T05:39:08.151Z,19.50
2022-08-21T05:41:39.575Z,19.50
2022-08-21T05:44:10.241Z,19.60
2022-08-21T05:46:39.139Z,19.60
2022-08-21T05:49:07.605Z,19.70
2022-08-21T05:51:36.458Z,19.70
2022-08-21T05:54:05.016Z,19.80
2022-08-21T05:56:33.446Z,19.90
2022-08-21T05:59:03.214Z,20.00
2022-08-21T06:01:37.433Z,20.00
2022-08-21T06:04:06.367Z,20.10
2022-08-21T06:06:34.795Z,20.20
2022-08-21T06:09:03.348Z,20.30
2022-08-21T06:11:32.244Z,20.30
2022-08-21T06:14:00.925Z,20.40
2022-08-21T06:16:30.894Z,20.50
2022-08-21T06:19:02.900Z,20.50
2022-08-21T06:21:31.810Z,20.60
2022-08-21T06:24:00.258Z,20.60
2022-08-21T06:26:29.191Z,20.60
2022-08-21T06:28:57.721Z,20.80
2022-08-21T06:31:27.031Z,20.80
2022-08-21T06:33:57.002Z,20.90
2022-08-21T06:36:25.561Z,20.90
2022-08-21T06:38:54.030Z,21.00
2022-08-21T06:41:26.466Z,21.10
2022-08-21T06:43:55.909Z,21.20
2022-08-21T06:46:24.353Z,21.30
2022-08-21T06:48:52.816Z,21.30
2022-08-21T06:51:22.681Z,21.30
2022-08-21T06:53:51.540Z,21.30
2022-08-21T06:56:20.278Z,21.30
2022-08-21T06:58:48.926Z,21.40
2022-08-21T07:01:17.383Z,21.40
2022-08-21T07:06:14.458Z,21.60
2022-08-21T07:08:44.358Z,21.70
2022-08-21T07:11:15.252Z,21.80
2022-08-21T07:13:45.291Z,21.80
2022-08-21T07:16:13.885Z,21.80
2022-08-21T07:18:42.342Z,21.90
2022-08-21T07:21:11.126Z,21.90
2022-08-21T07:23:40.425Z,21.90
2022-08-21T07:26:10.432Z,21.90
2022-08-21T07:28:38.968Z,22.00
2022-08-21T07:31:07.559Z,22.00
2022-08-21T07:33:36.544Z,22.00
2022-08-21T07:36:05.650Z,22.10
2022-08-21T07:38:34.136Z,22.10
2022-08-21T07:41:03.268Z,22.10
2022-08-21T07:43:33.179Z,22.10
2022-08-21T07:46:02.895Z,22.10
2022-08-21T07:48:31.268Z,22.20
2022-08-21T07:51:00.493Z,22.30
2022-08-21T07:53:28.920Z,22.40
2022-08-21T07:55:59.420Z,22.50
2022-08-21T07:58:28.014Z,22.60
2022-08-21T08:00:58.023Z,22.60
2022-08-21T08:03:29.223Z,22.60
2022-08-21T08:05:59.058Z,22.70
2022-08-21T08:08:27.801Z,22.70
2022-08-21T08:10:56.601Z,22.80
2022-08-21T08:13:25.154Z,22.80
2022-08-21T08:15:53.730Z,22.90
2022-08-21T08:18:23.849Z,23.00
2022-08-21T08:20:52.430Z,23.10
2022-08-21T08:23:20.814Z,23.20
2022-08-21T08:25:49.289Z,23.20
2022-08-21T08:28:17.996Z,23.30
2022-08-21T08:30:47.261Z,23.30
2022-08-21T08:33:15.978Z,23.30
2022-08-21T08:35:47.145Z,23.30
2022-08-21T08:38:21.471Z,23.40
2022-08-21T08:40:54.937Z,23.40
2022-08-21T08:43:23.744Z,23.40
2022-08-21T08:45:53.792Z,23.50
2022-08-21T08:48:36.077Z,23.50
2022-08-21T08:51:08.616Z,23.50
2022-08-21T08:53:39.708Z,23.60
2022-08-21T08:56:08.336Z,23.60
2022-08-21T08:58:39.775Z,23.70
2022-08-21T09:01:15.395Z,23.70
2022-08-21T09:03:44.460Z,23.70
2022-08-21T09:06:20.921Z,23.80
2022-08-21T09:08:52.561Z,23.80
2022-08-21T09:11:25.344Z,23.80
2022-08-21T09:14:02.930Z,23.90
2022-08-21T09:16:36.067Z,24.00
2022-08-21T09:19:09.590Z,24.00
2022-08-21T09:21:44.078Z,24.00
2022-08-21T09:24:22.744Z,24.10
2022-08-21T09:26:56.815Z,24.10
2022-08-21T09:29:28.341Z,24.10
2022-08-21T09:31:56.982Z,24.00
2022-08-21T09:34:29.984Z,24.10
2022-08-21T09:37:00.578Z,24.10
2022-08-21T09:39:30.793Z,24.20
2022-08-21T09:42:00.682Z,24.30
2022-08-21T09:44:30.044Z,24.30
2022-08-21T09:47:04.580Z,24.50
2022-08-21T09:49:35.885Z,24.70
2022-08-21T09:52:08.187Z,24.80
2022-08-21T09:54:39.307Z,24.80
2022-08-21T09:57:32.295Z,24.70
2022-08-21T10:00:20.432Z,24.60
2022-08-21T10:02:48.954Z,24.60
2022-08-21T10:05:19.264Z,24.70
2022-08-21T10:07:49.257Z,24.80
2022-08-21T10:10:18.896Z,25.00
2022-08-21T10:12:50.373Z,25.20
2022-08-21T10:15:22.795Z,25.10
2022-08-21T10:18:01.310Z,25.00
2022-08-21T10:20:31.920Z,24.90
2022-08-21T10:23:09.132Z,24.80
2022-08-21T10:25:40.707Z,24.90
2022-08-21T10:28:27.070Z,24.90
2022-08-21T10:30:58.583Z,24.90
2022-08-21T10:33:30.795Z,24.90
2022-08-21T10:36:03.579Z,24.90
2022-08-21T10:39:23.294Z,25.00
2022-08-21T10:42:02.537Z,24.90
2022-08-21T10:44:34.828Z,25.00
2022-08-21T10:47:05.349Z,25.00
2022-08-21T10:49:41.359Z,25.00
2022-08-21T10:52:25.036Z,25.00
2022-08-21T10:54:55.377Z,25.00
2022-08-21T10:57:31.995Z,24.90
2022-08-21T11:00:04.007Z,24.80
2022-08-21T11:02:34.300Z,24.80
2022-08-21T11:05:04.864Z,24.80
2022-08-21T11:07:35.030Z,24.80
2022-08-21T11:10:05.856Z,24.80
2022-08-21T11:12:41.204Z,24.90
2022-08-21T11:15:28.909Z,25.10
2022-08-21T11:18:02.795Z,25.20
2022-08-21T11:20:34.371Z,25.30
2022-08-21T11:23:08.453Z,25.20
2022-08-21T11:25:38.341Z,25.20
2022-08-21T11:28:14.490Z,25.10
2022-08-21T11:30:49.071Z,25.10
2022-08-21T11:33:25.510Z,25.10
2022-08-21T11:35:56.588Z,25.10
2022-08-21T11:38:28.901Z,25.00
2022-08-21T11:41:10.669Z,24.90
2022-08-21T11:43:43.588Z,24.80
2022-08-21T11:46:27.803Z,24.90
2022-08-21T11:49:02.289Z,24.80
2022-08-21T11:51:35.929Z,24.80
2022-08-21T11:54:07.934Z,24.80
2022-08-21T11:56:40.123Z,24.80
2022-08-21T11:59:12.663Z,24.90
2022-08-21T12:01:43.763Z,25.00
2022-08-21T12:04:19.087Z,25.00
2022-08-21T12:06:48.354Z,25.20
2022-08-21T12:09:32.045Z,25.50
2022-08-21T12:12:06.581Z,25.50
2022-08-21T12:14:41.526Z,25.80
2022-08-21T12:17:12.580Z,26.10
2022-08-21T12:19:41.835Z,26.30
2022-08-21T12:22:11.873Z,26.10
2022-08-21T12:24:41.437Z,26.00
2022-08-21T12:27:22.443Z,25.80
2022-08-21T12:29:54.857Z,25.50
2022-08-21T12:32:26.558Z,25.30
2022-08-21T12:34:57.067Z,25.30
2022-08-21T12:37:29.851Z,25.30
2022-08-21T12:40:01.708Z,25.30
2022-08-21T12:42:36.396Z,25.30
2022-08-21T12:45:07.394Z,25.20
2022-08-21T12:47:37.443Z,25.20
2022-08-21T12:50:08.289Z,25.30
2022-08-21T12:52:39.507Z,25.40
2022-08-21T12:55:09.242Z,25.40
2022-08-21T12:57:39.031Z,25.40
2022-08-21T13:00:12.701Z,25.40
2022-08-21T13:02:44.775Z,25.40
2022-08-21T13:05:15.396Z,25.30
2022-08-21T13:07:47.289Z,25.30
2022-08-21T13:10:18.978Z,25.30
2022-08-21T13:12:48.527Z,25.30
2022-08-21T13:15:24.750Z,25.30
2022-08-21T13:18:03.640Z,25.40
2022-08-21T13:20:34.570Z,25.30
2022-08-21T13:23:03.798Z,25.30
2022-08-21T13:25:36.465Z,25.30
2022-08-21T13:28:08.099Z,25.20
2022-08-21T13:30:41.175Z,25.30
2022-08-21T13:33:13.291Z,25.30
2022-08-21T13:35:49.652Z,25.40
2022-08-21T13:38:18.500Z,25.40
2022-08-21T13:40:49.359Z,25.40
2022-08-21T13:43:21.259Z,25.50
2022-08-21T13:45:52.694Z,25.50
2022-08-21T13:48:21.918Z,25.60
2022-08-21T13:50:55.244Z,25.70
2022-08-21T13:53:25.531Z,25.70
2022-08-21T13:55:57.404Z,25.70
2022-08-21T13:58:29.245Z,25.70
2022-08-21T14:01:00.788Z,25.60
2022-08-21T14:03:30.953Z,25.60
2022-08-21T14:06:00.422Z,25.60
2022-08-21T14:08:31.828Z,25.60
2022-08-21T14:11:03.027Z,25.50
2022-08-21T14:13:39.944Z,25.50
2022-08-21T14:16:20.682Z,25.40
2022-08-21T14:18:53.544Z,25.30
2022-08-21T14:21:33.426Z,25.30
2022-08-21T14:24:07.975Z,25.20
2022-08-21T14:26:37.730Z,25.20
2022-08-21T14:29:10.576Z,25.20
2022-08-21T14:31:43.088Z,25.20
2022-08-21T14:34:19.287Z,25.10
2022-08-21T14:36:49.464Z,25.10
2022-08-21T14:39:17.876Z,25.10
2022-08-21T14:41:47.808Z,25.00
2022-08-21T14:44:16.657Z,24.90
2022-08-21T14:46:55.911Z,24.90
2022-08-21T14:49:27.529Z,24.90
2022-08-21T14:51:58.752Z,24.80
2022-08-21T14:54:31.184Z,24.80
2022-08-21T14:57:02.669Z,24.80
2022-08-21T14:59:32.246Z,24.80
2022-08-21T15:02:02.516Z,24.80
2022-08-21T15:04:30.989Z,24.80
2022-08-21T15:06:59.364Z,24.70
2022-08-21T15:09:27.828Z,24.60
2022-08-21T15:11:58.365Z,24.60
2022-08-21T15:14:27.505Z,24.60
2022-08-21T15:16:56.118Z,24.60
2022-08-21T15:19:26.260Z,24.60
2022-08-21T15:21:54.916Z,24.60
2022-08-21T15:24:23.318Z,24.60
2022-08-21T15:26:51.876Z,24.60
2022-08-21T15:29:22.879Z,24.60
2022-08-21T15:31:56.913Z,24.60
2022-08-21T15:34:28.310Z,24.60
2022-08-21T15:36:57.231Z,24.50
2022-08-21T15:39:30.176Z,24.50
2022-08-21T15:42:10.386Z,24.50
2022-08-21T15:44:40.635Z,24.50
2022-08-21T15:47:09.617Z,24.50
2022-08-21T15:49:39.552Z,24.50
2022-08-21T15:52:13.846Z,24.40
2022-08-21T15:54:47.320Z,24.30
2022-08-21T15:57:18.301Z,24.30
2022-08-21T15:59:47.857Z,24.20
2022-08-21T16:02:23.191Z,24.20
2022-08-21T16:04:53.862Z,24.20
2022-08-21T16:07:22.725Z,24.10
2022-08-21T16:09:51.307Z,24.10
2022-08-21T16:12:23.253Z,24.00
2022-08-21T16:14:53.724Z,24.00
2022-08-21T16:17:27.064Z,24.00
2022-08-21T16:20:00.705Z,24.00
2022-08-21T16:22:31.762Z,23.90
2022-08-21T16:25:11.309Z,23.90
2022-08-21T16:27:40.204Z,23.80
2022-08-21T16:30:09.367Z,23.80
2022-08-21T16:32:38.963Z,23.80
2022-08-21T16:35:09.269Z,23.80
2022-08-21T16:37:37.669Z,23.70
2022-08-21T16:40:07.002Z,23.70
2022-08-21T16:42:36.724Z,23.70
2022-08-21T16:45:06.266Z,23.70
2022-08-21T16:47:34.929Z,23.70
2022-08-21T16:50:03.412Z,23.70
2022-08-21T16:52:33.618Z,23.60
2022-08-21T16:55:03.480Z,23.60
2022-08-21T16:57:31.957Z,23.60
2022-08-21T17:00:00.459Z,23.50
2022-08-21T17:02:31.292Z,23.50
2022-08-21T17:04:59.906Z,23.50
2022-08-21T17:07:28.412Z,23.40
2022-08-21T17:09:58.405Z,23.40
2022-08-21T17:12:26.999Z,23.40
2022-08-21T17:14:55.954Z,23.40
2022-08-21T17:17:24.428Z,23.40
2022-08-21T17:19:52.830Z,23.30
2022-08-21T17:22:21.387Z,23.30
2022-08-21T17:24:49.825Z,23.30
2022-08-21T17:27:26.639Z,23.20
2022-08-21T17:29:56.313Z,23.20
2022-08-21T17:32:24.939Z,23.10
2022-08-21T17:34:53.488Z,23.10
2022-08-21T17:37:23.717Z,23.10
2022-08-21T17:39:54.929Z,23.10
2022-08-21T17:42:25.368Z,23.10
2022-08-21T17:44:53.947Z,23.00
2022-08-21T17:47:22.413Z,23.00
2022-08-21T17:49:50.911Z,23.00
2022-08-21T17:52:19.379Z,23.00
2022-08-21T17:54:47.967Z,22.90
2022-08-21T17:57:19.425Z,22.90
2022-08-21T17:59:58.384Z,22.90
2022-08-21T18:02:27.983Z,22.90
2022-08-21T18:04:56.601Z,22.90
2022-08-21T18:07:30.894Z,22.90
2022-08-21T18:10:01.352Z,22.80
2022-08-21T18:12:30.401Z,22.80
2022-08-21T18:15:00.404Z,22.80
2022-08-21T18:17:33.406Z,22.80
2022-08-21T18:20:02.364Z,22.70
2022-08-21T18:22:30.855Z,22.70
2022-08-21T18:24:59.350Z,22.60
2022-08-21T18:27:29.728Z,22.60
2022-08-21T18:30:00.483Z,22.50
2022-08-21T18:32:30.894Z,22.50
2022-08-21T18:35:01.392Z,22.50
2022-08-21T18:37:30.179Z,22.50
2022-08-21T18:40:00.892Z,22.40
2022-08-21T18:42:29.943Z,22.40
2022-08-21T18:45:02.086Z,22.40
2022-08-21T18:47:33.777Z,22.40
2022-08-21T18:50:02.345Z,22.40
2022-08-21T18:52:31.344Z,22.30
2022-08-21T18:54:59.884Z,22.30
2022-08-21T18:57:34.890Z,22.30
2022-08-21T19:00:09.674Z,22.30
2022-08-21T19:02:43.975Z,22.20
2022-08-21T19:05:14.035Z,22.20
2022-08-21T19:07:42.646Z,22.20
2022-08-21T19:13:04.162Z,22.20
2022-08-21T19:15:38.174Z,22.20
2022-08-21T19:18:09.110Z,22.20
2022-08-21T19:20:44.655Z,22.20
2022-08-21T19:23:18.051Z,22.20
2022-08-21T19:28:37.212Z,22.10
2022-08-21T19:31:12.302Z,22.10
2022-08-21T19:33:47.387Z,22.00
2022-08-21T19:36:19.754Z,21.90
2022-08-21T19:38:48.278Z,21.90
2022-08-21T19:41:18.131Z,21.90
2022-08-21T19:43:48.731Z,21.90
2022-08-21T19:46:22.060Z,21.90
2022-08-21T19:48:50.531Z,21.90
2022-08-21T19:51:19.066Z,21.90
2022-08-21T19:53:47.632Z,21.90
2022-08-21T19:56:19.780Z,21.90
2022-08-21T19:58:49.965Z,21.90
2022-08-21T20:01:20.980Z,21.90
2022-08-21T20:03:54.209Z,21.90
2022-08-21T20:06:24.380Z,21.90
2022-08-21T20:08:55.063Z,21.90
2022-08-21T20:11:32.784Z,21.90
2022-08-21T20:14:02.294Z,21.90
2022-08-21T20:16:32.379Z,21.80
2022-08-21T20:19:03.548Z,21.80
2022-08-21T20:21:44.298Z,21.80
2022-08-21T20:24:14.821Z,21.90
2022-08-21T20:26:49.469Z,22.00
2022-08-21T20:31:57.196Z,21.70
2022-08-21T20:34:25.800Z,21.70
2022-08-21T20:36:55.150Z,21.70
2022-08-21T20:39:24.124Z,21.60
2022-08-21T20:41:53.327Z,21.60
2022-08-21T20:44:22.035Z,21.60
2022-08-21T20:46:53.466Z,21.60
2022-08-21T20:49:26.591Z,21.70
2022-08-21T20:51:55.346Z,21.60
2022-08-21T20:54:27.443Z,21.60
2022-08-21T20:56:58.890Z,21.60
2022-08-21T20:59:39.652Z,21.60
2022-08-21T21:02:12.784Z,21.60
2022-08-21T21:04:46.106Z,21.50
2022-08-21T21:07:17.868Z,21.60
2022-08-21T21:09:48.707Z,21.60
2022-08-21T21:12:19.083Z,21.60
2022-08-21T21:14:59.740Z,21.60
2022-08-21T21:17:31.690Z,21.60
2022-08-21T21:20:03.639Z,21.60
2022-08-21T21:22:33.737Z,21.60
2022-08-21T21:25:13.279Z,21.50
2022-08-21T21:27:42.100Z,21.50
2022-08-21T21:33:01.081Z,21.50
2022-08-21T21:35:36.561Z,21.50
2022-08-21T21:38:13.312Z,21.40
2022-08-21T21:40:46.938Z,21.50
2022-08-21T21:43:21.805Z,21.10
2022-08-21T21:46:01.239Z,21.10
2022-08-21T21:48:36.818Z,21.00
2022-08-21T21:51:12.214Z,20.90
2022-08-21T21:53:51.615Z,20.90
2022-08-21T21:56:27.637Z,20.80
2022-08-21T21:59:15.484Z,20.80
2022-08-21T22:01:46.845Z,20.70
2022-08-21T22:04:19.178Z,20.60
2022-08-21T22:06:54.437Z,20.60
2022-08-21T22:09:26.138Z,20.60
2022-08-21T22:12:01.147Z,20.60
2022-08-21T22:14:34.063Z,20.50
2022-08-21T22:17:07.768Z,20.60
2022-08-21T22:19:40.872Z,20.50
2022-08-21T22:22:19.285Z,20.50
2022-08-21T22:24:49.833Z,20.50
2022-08-21T22:27:20.311Z,20.50
2022-08-21T22:29:49.775Z,20.50
2022-08-21T22:32:29.307Z,20.50
2022-08-21T22:35:09.323Z,20.50
2022-08-21T22:37:40.926Z,20.50
2022-08-21T22:40:13.148Z,20.40
2022-08-21T22:42:44.251Z,20.40
2022-08-21T22:45:14.562Z,20.30
2022-08-21T22:47:46.031Z,20.30
2022-08-21T22:50:20.700Z,20.30
2022-08-21T22:52:51.848Z,20.30
2022-08-21T22:55:25.537Z,20.30
2022-08-21T22:58:05.786Z,20.30
2022-08-21T23:00:49.406Z,20.30
2022-08-21T23:03:19.864Z,20.40
2022-08-21T23:05:52.036Z,20.40
2022-08-21T23:08:29.117Z,20.50
2022-08-21T23:11:00.865Z,20.50
2022-08-21T23:13:31.810Z,20.50
2022-08-21T23:16:06.030Z,20.50
2022-08-21T23:18:41.640Z,20.40
2022-08-21T23:21:12.561Z,20.50
2022-08-21T23:23:53.221Z,20.40
2022-08-21T23:26:25.300Z,20.40
2022-08-21T23:29:08.172Z,20.40
2022-08-21T23:31:46.516Z,20.40
2022-08-21T23:34:29.910Z,20.40
2022-08-21T23:37:23.674Z,20.40
2022-08-21T23:40:08.529Z,20.50
2022-08-21T23:42:59.458Z,20.50
2022-08-21T23:45:37.473Z,20.50
2022-08-21T23:48:14.517Z,20.50
2022-08-21T23:50:52.675Z,20.50
2022-08-21T23:53:26.853Z,20.40
2022-08-21T23:56:04.421Z,20.40
2022-08-21T23:58:37.665Z,20.40
